Time;durP1;ratioP1;P1;durP2;ratioP2;P2;SDS_P1;SDS_P2;PMS_P1;PMS_P2;Temp;Humidity;BMP_temperature;BMP_pressure;BME280_temperature;BME280_humidity;BME280_pressure;Samples;Min_cycle;Max_cycle;Signal;HPM_P1;HPM_P2
2023/08/18 00:01:38;;;;;;;8.55;3.03;;;19.00;99.90;;;;;;4974961;28;20045;-77
2023/08/18 00:04:04;;;;;;;8.77;2.60;;;19.00;99.90;;;;;;4974853;28;20588;-76
2023/08/18 00:06:30;;;;;;;7.85;2.47;;;18.90;99.90;;;;;;4974655;28;20035;-75
2023/08/18 00:08:55;;;;;;;10.45;3.25;;;18.90;99.90;;;;;;4975022;28;20023;-76
2023/08/18 00:11:21;;;;;;;6.70;2.40;;;18.90;99.90;;;;;;4988724;28;20439;-76
2023/08/18 00:13:47;;;;;;;10.57;3.20;;;18.80;99.90;;;;;;4993942;28;20038;-76
2023/08/18 00:16:13;;;;;;;8.52;3.03;;;18.70;99.90;;;;;;4993114;28;20140;-76
2023/08/18 00:18:40;;;;;;;5.45;2.72;;;18.70;99.90;;;;;;4992681;28;20105;-76
2023/08/18 00:21:08;;;;;;;12.05;3.30;;;18.70;99.90;;;;;;4983765;28;20027;-78
2023/08/18 00:23:33;;;;;;;8.20;3.03;;;18.70;99.90;;;;;;4980332;28;20033;-78
2023/08/18 00:25:59;;;;;;;7.82;3.03;;;18.70;99.90;;;;;;4982280;28;20109;-76
2023/08/18 00:28:26;;;;;;;8.02;2.60;;;18.70;99.90;;;;;;4984337;28;20026;-76
2023/08/18 00:30:52;;;;;;;8.52;3.20;;;18.70;99.90;;;;;;4984520;28;20098;-75
2023/08/18 00:33:17;;;;;;;9.43;2.72;;;18.70;99.90;;;;;;4988019;28;20113;-75
2023/08/18 00:35:43;;;;;;;9.43;2.90;;;18.60;99.90;;;;;;4992498;28;20030;-76
2023/08/18 00:38:09;;;;;;;5.78;2.45;;;18.60;99.90;;;;;;4986636;28;20062;-78
2023/08/18 00:40:34;;;;;;;15.90;2.72;;;18.60;99.90;;;;;;4973155;28;20034;-77
2023/08/18 00:43:00;;;;;;;12.43;2.97;;;18.50;99.90;;;;;;4974294;28;20043;-76
2023/08/18 00:45:26;;;;;;;9.02;3.10;;;18.50;99.90;;;;;;4973626;28;20035;-76
2023/08/18 00:47:52;;;;;;;10.45;3.20;;;18.60;99.90;;;;;;4974222;28;20034;-75
2023/08/18 00:50:19;;;;;;;10.93;3.15;;;18.60;99.90;;;;;;4973605;28;20444;-75
2023/08/18 00:52:53;;;;;;;9.25;2.72;;;18.50;99.90;;;;;;4974010;28;20444;-75
2023/08/18 00:55:19;;;;;;;8.88;3.17;;;18.50;99.90;;;;;;4973788;28;20026;-76
2023/08/18 00:57:45;;;;;;;6.15;2.88;;;18.50;99.90;;;;;;4974438;28;20093;-76
2023/08/18 01:00:11;;;;;;;8.57;3.15;;;18.50;99.90;;;;;;4972709;28;20467;-77
2023/08/18 01:02:37;;;;;;;6.65;3.00;;;18.50;99.90;;;;;;4974020;28;20062;-77
2023/08/18 01:05:03;;;;;;;7.85;3.30;;;18.50;99.90;;;;;;4974234;28;20074;-77
2023/08/18 01:07:28;;;;;;;5.88;2.75;;;18.40;99.90;;;;;;4973705;28;20046;-77
2023/08/18 01:09:55;;;;;;;9.55;2.88;;;18.40;99.90;;;;;;4974775;28;20459;-77
2023/08/18 01:12:39;;;;;;;12.52;3.30;;;18.40;99.90;;;;;;4974063;28;20468;-75
2023/08/18 01:15:11;;;;;;;11.57;2.85;;;18.30;99.90;;;;;;4974803;28;20045;-75
2023/08/18 01:17:45;;;;;;;9.15;2.97;;;18.30;99.90;;;;;;4973338;28;20037;-76
2023/08/18 01:20:11;;;;;;;8.13;3.20;;;18.30;99.90;;;;;;4974358;28;20071;-77
2023/08/18 01:22:39;;;;;;;10.13;2.85;;;18.30;99.90;;;;;;4974022;28;20042;-76
2023/08/18 01:25:05;;;;;;;9.98;3.25;;;18.40;99.90;;;;;;4974191;28;20139;-75
2023/08/18 01:27:32;;;;;;;12.18;3.10;;;18.40;99.90;;;;;;4973523;28;20054;-76
2023/08/18 01:29:59;;;;;;;9.48;3.33;;;18.40;99.90;;;;;;4974018;28;20038;-76
2023/08/18 01:32:30;;;;;;;6.93;2.85;;;18.30;99.90;;;;;;4972046;28;20031;-76
2023/08/18 01:34:59;;;;;;;12.65;3.50;;;18.30;99.90;;;;;;4974068;28;20030;-76
2023/08/18 01:37:27;;;;;;;11.82;2.95;;;18.30;99.90;;;;;;4973369;28;20031;-75
2023/08/18 01:39:54;;;;;;;12.30;3.33;;;18.30;99.90;;;;;;4973952;28;20173;-75
2023/08/18 01:42:20;;;;;;;12.40;3.35;;;18.30;99.90;;;;;;4972962;28;20058;-75
2023/08/18 01:44:46;;;;;;;14.85;3.38;;;18.30;99.90;;;;;;4973850;28;20465;-76
2023/08/18 01:47:11;;;;;;;14.27;3.13;;;18.20;99.90;;;;;;4974404;28;20090;-76
2023/08/18 01:49:37;;;;;;;11.23;3.05;;;18.20;99.90;;;;;;4973810;28;20131;-75
2023/08/18 01:52:03;;;;;;;8.70;3.35;;;18.20;99.90;;;;;;4974555;28;20086;-77
2023/08/18 01:54:29;;;;;;;11.07;3.78;;;18.20;99.90;;;;;;4984378;28;20096;-75
2023/08/18 01:56:54;;;;;;;14.23;3.20;;;18.20;99.90;;;;;;4994289;28;20076;-76
2023/08/18 01:59:20;;;;;;;12.18;3.13;;;18.20;99.90;;;;;;4993717;28;20105;-75
2023/08/18 02:01:46;;;;;;;11.23;3.30;;;18.20;99.90;;;;;;4995045;28;20034;-79
2023/08/18 02:04:12;;;;;;;12.52;2.85;;;18.30;99.90;;;;;;4993479;28;20479;-76
2023/08/18 02:06:38;;;;;;;11.52;3.40;;;18.20;99.90;;;;;;4992886;28;20081;-75
2023/08/18 02:09:05;;;;;;;9.52;3.22;;;18.30;99.90;;;;;;4992557;28;20065;-76
2023/08/18 02:11:31;;;;;;;12.68;3.35;;;18.30;99.90;;;;;;4990937;28;20421;-76
2023/08/18 02:13:57;;;;;;;11.70;2.60;;;18.20;99.90;;;;;;4991092;28;20038;-76
2023/08/18 02:16:22;;;;;;;10.30;3.08;;;18.20;99.90;;;;;;4992443;28;20038;-75
2023/08/18 02:18:48;;;;;;;11.88;3.50;;;18.20;99.90;;;;;;4992580;28;20022;-74
2023/08/18 02:21:16;;;;;;;10.75;3.58;;;18.10;99.90;;;;;;4981330;28;20026;-76
2023/08/18 02:23:42;;;;;;;17.40;3.42;;;18.10;99.90;;;;;;4973270;28;20042;-76
2023/08/18 02:26:08;;;;;;;10.40;3.17;;;18.00;99.90;;;;;;4971655;28;20500;-76
2023/08/18 02:28:34;;;;;;;9.88;3.58;;;18.00;99.90;;;;;;4971147;28;20018;-76
2023/08/18 02:31:05;;;;;;;14.35;3.67;;;18.00;99.90;;;;;;4973062;28;20041;-76
2023/08/18 02:33:33;;;;;;;12.43;3.17;;;18.00;99.90;;;;;;4972558;28;20053;-76
2023/08/18 02:35:59;;;;;;;10.05;3.25;;;17.90;99.90;;;;;;4973030;28;20038;-76
2023/08/18 02:38:28;;;;;;;11.00;3.28;;;17.90;99.90;;;;;;4972397;28;20057;-76
2023/08/18 02:40:55;;;;;;;10.88;3.38;;;17.90;99.90;;;;;;4973068;28;20030;-76
2023/08/18 02:43:22;;;;;;;12.60;3.60;;;18.00;99.90;;;;;;4972320;28;20110;-76
2023/08/18 02:45:48;;;;;;;10.13;2.63;;;17.90;99.90;;;;;;4972728;28;20445;-76
2023/08/18 02:48:16;;;;;;;9.90;2.83;;;17.90;99.90;;;;;;4973046;28;20069;-76
2023/08/18 02:50:41;;;;;;;7.90;3.30;;;17.90;99.90;;;;;;4972302;28;20166;-76
2023/08/18 02:53:07;;;;;;;9.43;2.92;;;17.90;99.90;;;;;;4972893;28;20573;-76
2023/08/18 02:55:38;;;;;;;9.65;3.10;;;17.90;99.90;;;;;;4972429;28;20037;-74
2023/08/18 02:58:04;;;;;;;16.13;3.25;;;17.90;99.90;;;;;;4971543;28;20428;-75
2023/08/18 03:00:31;;;;;;;14.52;3.30;;;17.80;99.90;;;;;;4972092;28;20027;-74
2023/08/18 03:02:58;;;;;;;12.90;2.72;;;17.80;99.90;;;;;;4972635;28;20034;-75
2023/08/18 03:05:25;;;;;;;9.30;3.10;;;17.90;99.90;;;;;;4972124;28;20101;-76
2023/08/18 03:07:50;;;;;;;12.45;3.35;;;17.80;99.90;;;;;;4972504;28;20041;-76
2023/08/18 03:10:16;;;;;;;11.20;3.50;;;17.80;99.90;;;;;;4970648;28;20114;-76
2023/08/18 03:12:42;;;;;;;13.50;3.35;;;17.80;99.90;;;;;;4972093;28;20514;-75
2023/08/18 03:15:08;;;;;;;16.15;3.35;;;17.80;99.90;;;;;;4972063;28;20102;-75
2023/08/18 03:17:34;;;;;;;11.07;3.35;;;17.80;99.90;;;;;;4970343;28;20123;-76
2023/08/18 03:19:59;;;;;;;14.77;3.47;;;17.70;99.90;;;;;;4972029;28;20114;-75
2023/08/18 03:22:27;;;;;;;12.05;3.30;;;17.70;99.90;;;;;;4971635;28;20062;-76
2023/08/18 03:24:53;;;;;;;11.32;3.10;;;17.70;99.90;;;;;;4971915;28;20066;-75
2023/08/18 03:27:18;;;;;;;12.90;3.63;;;17.70;99.90;;;;;;4970786;28;20058;-78
2023/08/18 03:29:44;;;;;;;10.73;3.78;;;17.70;99.90;;;;;;4970476;28;20397;-76
2023/08/18 03:32:10;;;;;;;9.95;2.78;;;17.70;99.90;;;;;;4971916;28;20418;-76
2023/08/18 03:34:35;;;;;;;9.63;3.55;;;17.70;99.90;;;;;;4971355;28;20093;-76
2023/08/18 03:37:01;;;;;;;16.80;3.28;;;17.70;99.90;;;;;;4972045;28;20035;-76
2023/08/18 03:39:27;;;;;;;15.13;3.72;;;17.60;99.90;;;;;;4971364;28;20134;-76
2023/08/18 03:41:52;;;;;;;13.77;3.08;;;17.70;99.90;;;;;;4972250;28;20457;-76
2023/08/18 03:44:18;;;;;;;12.05;3.53;;;17.70;99.90;;;;;;4971670;28;20027;-77
2023/08/18 03:46:44;;;;;;;12.60;3.10;;;17.60;99.90;;;;;;4972115;28;20456;-76
2023/08/18 03:49:09;;;;;;;13.45;3.47;;;17.60;99.90;;;;;;4971837;28;20027;-74
2023/08/18 03:51:35;;;;;;;18.17;3.42;;;17.60;99.90;;;;;;4970893;28;20070;-75
2023/08/18 03:54:01;;;;;;;15.48;3.88;;;17.50;99.90;;;;;;4971441;28;20066;-76
2023/08/18 03:56:27;;;;;;;13.80;3.35;;;17.50;99.90;;;;;;4971114;28;20049;-75
2023/08/18 03:58:53;;;;;;;8.45;3.17;;;17.60;99.90;;;;;;4971825;28;20034;-74
2023/08/18 04:01:18;;;;;;;13.48;3.67;;;17.50;99.90;;;;;;4971668;28;20378;-75
2023/08/18 04:03:45;;;;;;;11.30;3.58;;;17.50;99.90;;;;;;4971337;28;20073;-75
2023/08/18 04:06:12;;;;;;;13.75;4.13;;;17.40;99.90;;;;;;4972154;28;20039;-76
2023/08/18 04:08:43;;;;;;;10.80;3.78;;;17.40;99.90;;;;;;4971431;28;20044;-77
2023/08/18 04:11:10;;;;;;;12.52;3.72;;;17.40;99.90;;;;;;4971634;28;20461;-76
2023/08/18 04:13:36;;;;;;;13.27;3.70;;;17.40;99.90;;;;;;4970708;28;20431;-75
2023/08/18 04:16:02;;;;;;;12.05;3.28;;;17.40;99.90;;;;;;4971455;28;20106;-74
2023/08/18 04:18:29;;;;;;;11.32;3.80;;;17.40;99.90;;;;;;4970852;28;20058;-76
2023/08/18 04:20:55;;;;;;;14.07;3.90;;;17.40;99.90;;;;;;4969905;28;20023;-76
2023/08/18 04:23:20;;;;;;;10.10;3.30;;;17.30;99.90;;;;;;4971091;28;20097;-77
2023/08/18 04:25:46;;;;;;;16.13;4.20;;;17.30;99.90;;;;;;4970926;28;20026;-76
2023/08/18 04:28:12;;;;;;;11.23;3.30;;;17.30;99.90;;;;;;4970052;28;20396;-74
2023/08/18 04:30:38;;;;;;;12.15;3.22;;;17.30;99.90;;;;;;4970950;28;20118;-75
2023/08/18 04:33:04;;;;;;;9.98;3.35;;;17.20;99.90;;;;;;4969969;28;20037;-75
2023/08/18 04:35:30;;;;;;;10.63;3.42;;;17.30;99.90;;;;;;4973036;28;20514;-75
2023/08/18 04:37:55;;;;;;;14.43;3.40;;;17.30;99.90;;;;;;4974994;28;20035;-76
2023/08/18 04:40:23;;;;;;;12.02;4.13;;;17.20;99.90;;;;;;4975156;28;20437;-75
2023/08/18 04:42:49;;;;;;;9.50;3.80;;;17.20;99.90;;;;;;4975119;28;20049;-75
2023/08/18 04:45:14;;;;;;;11.70;3.50;;;17.20;99.90;;;;;;4973743;28;20027;-75
2023/08/18 04:47:40;;;;;;;12.45;3.50;;;17.20;99.90;;;;;;4974673;28;20026;-75
2023/08/18 04:50:06;;;;;;;10.88;3.75;;;17.20;99.90;;;;;;4975235;28;20114;-76
2023/08/18 04:52:32;;;;;;;11.30;3.50;;;17.00;99.90;;;;;;4974499;28;20381;-76
2023/08/18 04:54:58;;;;;;;12.20;4.05;;;17.00;99.90;;;;;;4974926;28;20093;-76
2023/08/18 04:57:23;;;;;;;13.30;3.72;;;17.00;99.90;;;;;;4974542;28;20031;-77
2023/08/18 04:59:49;;;;;;;16.10;3.85;;;17.00;99.90;;;;;;4974472;28;20030;-76
2023/08/18 05:02:15;;;;;;;13.07;4.10;;;17.00;99.90;;;;;;4974780;28;20464;-75
2023/08/18 05:04:41;;;;;;;15.73;4.57;;;16.90;99.90;;;;;;4974090;28;20023;-76
2023/08/18 05:07:07;;;;;;;15.43;5.07;;;17.00;99.90;;;;;;4975064;28;20490;-76
2023/08/18 05:09:34;;;;;;;16.88;5.03;;;16.90;99.90;;;;;;4974247;28;20030;-76
2023/08/18 05:11:59;;;;;;;18.23;5.32;;;16.90;99.90;;;;;;4974612;28;20031;-76
2023/08/18 05:14:25;;;;;;;16.27;4.95;;;16.90;99.90;;;;;;4973845;28;20061;-77
2023/08/18 05:16:51;;;;;;;21.40;5.15;;;16.90;99.90;;;;;;4974472;28;20030;-76
2023/08/18 05:19:16;;;;;;;17.15;4.70;;;16.80;99.90;;;;;;4974191;28;20063;-76
2023/08/18 05:21:42;;;;;;;14.65;4.72;;;16.80;99.90;;;;;;4973993;28;20384;-76
2023/08/18 05:24:08;;;;;;;12.55;4.70;;;16.80;99.90;;;;;;4974256;28;20038;-76
2023/08/18 05:26:33;;;;;;;16.20;4.80;;;16.80;99.90;;;;;;4973453;28;20035;-77
2023/08/18 05:28:59;;;;;;;17.67;4.60;;;16.80;99.90;;;;;;4973983;28;20085;-76
2023/08/18 05:31:25;;;;;;;13.23;4.18;;;16.80;99.90;;;;;;4973660;28;20067;-77
2023/08/18 05:33:50;;;;;;;18.95;5.30;;;16.80;99.90;;;;;;4973790;28;20031;-76
2023/08/18 05:36:17;;;;;;;14.48;4.53;;;16.80;99.90;;;;;;4975062;28;20034;-74
2023/08/18 05:38:43;;;;;;;16.60;4.97;;;16.80;99.90;;;;;;4975095;28;20062;-75
2023/08/18 05:41:13;;;;;;;13.60;5.18;;;16.70;99.90;;;;;;4974753;28;20424;-76
2023/08/18 05:43:40;;;;;;;14.80;5.07;;;16.70;99.90;;;;;;4972853;28;20101;-74
2023/08/18 05:46:07;;;;;;;16.75;4.70;;;16.70;99.90;;;;;;4974892;28;20066;-75
2023/08/18 05:48:33;;;;;;;11.82;4.28;;;16.70;99.90;;;;;;4973396;28;20030;-75
2023/08/18 05:50:59;;;;;;;23.05;5.10;;;16.70;99.90;;;;;;4973434;28;20023;-75
2023/08/18 05:53:25;;;;;;;18.92;5.05;;;16.60;99.90;;;;;;4973438;28;20054;-75
2023/08/18 05:55:52;;;;;;;13.23;4.80;;;16.60;99.90;;;;;;4972917;28;20124;-75
2023/08/18 05:58:18;;;;;;;15.93;5.18;;;16.60;99.90;;;;;;4972955;28;20473;-75
2023/08/18 06:00:44;;;;;;;17.17;5.68;;;16.50;99.90;;;;;;4972695;28;20070;-76
2023/08/18 06:03:10;;;;;;;21.20;5.15;;;16.50;99.90;;;;;;4972978;28;20119;-76
2023/08/18 06:05:36;;;;;;;22.75;5.90;;;16.40;99.90;;;;;;4972630;28;20353;-74
2023/08/18 06:08:01;;;;;;;15.70;6.13;;;16.40;99.90;;;;;;4971552;28;20034;-76
2023/08/18 06:10:27;;;;;;;21.35;6.75;;;16.30;99.90;;;;;;4973518;28;20126;-76
2023/08/18 06:12:53;;;;;;;28.40;7.45;;;16.30;99.90;;;;;;4972655;28;20357;-75
2023/08/18 06:15:19;;;;;;;24.50;7.20;;;16.30;99.90;;;;;;4972780;28;20034;-75
2023/08/18 06:17:47;;;;;;;24.13;7.65;;;16.30;99.90;;;;;;4972570;28;20027;-76
2023/08/18 06:20:13;;;;;;;21.15;7.78;;;16.30;99.90;;;;;;4973219;28;20106;-75
2023/08/18 06:22:39;;;;;;;22.38;7.53;;;16.30;99.90;;;;;;4972361;28;20481;-74
2023/08/18 06:25:07;;;;;;;23.90;7.63;;;16.20;99.90;;;;;;4973264;28;20081;-76
2023/08/18 06:27:33;;;;;;;18.33;8.00;;;16.30;99.90;;;;;;4972512;28;20460;-76
2023/08/18 06:29:59;;;;;;;20.45;7.38;;;16.30;99.90;;;;;;4973251;28;20037;-74
2023/08/18 06:32:24;;;;;;;17.90;8.50;;;16.30;99.90;;;;;;4972996;28;20114;-75
2023/08/18 06:34:51;;;;;;;26.17;8.48;;;16.20;99.90;;;;;;4972277;28;20517;-75
2023/08/18 06:37:17;;;;;;;20.95;8.57;;;16.20;99.90;;;;;;4972922;28;20444;-75
2023/08/18 06:39:43;;;;;;;23.85;8.25;;;16.20;99.90;;;;;;4970570;28;20047;-75
2023/08/18 06:42:09;;;;;;;21.40;8.05;;;16.10;99.90;;;;;;4972541;28;20019;-77
2023/08/18 06:44:35;;;;;;;15.05;8.02;;;16.10;99.90;;;;;;4972573;28;20033;-76
2023/08/18 06:47:01;;;;;;;22.50;8.00;;;16.00;99.90;;;;;;4972707;28;20027;-76
2023/08/18 06:49:27;;;;;;;24.02;9.20;;;16.00;99.90;;;;;;4972529;28;20101;-76
2023/08/18 06:51:52;;;;;;;16.48;7.75;;;16.00;99.90;;;;;;4970752;28;20122;-77
2023/08/18 06:54:18;;;;;;;14.75;7.47;;;16.10;99.90;;;;;;4972364;28;20158;-76
2023/08/18 06:56:44;;;;;;;24.65;9.15;;;16.10;99.90;;;;;;4971481;28;20538;-75
2023/08/18 06:59:12;;;;;;;15.85;7.82;;;16.10;99.90;;;;;;4970962;28;20031;-77
2023/08/18 07:01:38;;;;;;;18.10;7.20;;;16.20;99.90;;;;;;4971517;28;20042;-75
2023/08/18 07:04:04;;;;;;;20.77;7.03;;;16.10;99.90;;;;;;4972523;28;20085;-75
2023/08/18 07:06:31;;;;;;;17.95;7.40;;;16.10;99.90;;;;;;4972227;28;20027;-75
2023/08/18 07:08:57;;;;;;;17.98;6.93;;;16.10;99.90;;;;;;4971954;28;20101;-76
2023/08/18 07:11:23;;;;;;;21.55;7.65;;;16.10;99.90;;;;;;4972329;28;20400;-76
2023/08/18 07:13:48;;;;;;;19.20;6.97;;;16.10;99.90;;;;;;4971504;28;20042;-76
2023/08/18 07:16:14;;;;;;;17.30;7.00;;;16.10;99.90;;;;;;4972489;28;20058;-76
2023/08/18 07:18:40;;;;;;;21.30;7.75;;;16.20;99.90;;;;;;4972828;28;20019;-76
2023/08/18 07:21:05;;;;;;;20.48;7.68;;;16.20;99.90;;;;;;4971527;28;20038;-77
2023/08/18 07:23:31;;;;;;;22.48;7.32;;;16.20;99.90;;;;;;4972707;28;20041;-75
2023/08/18 07:25:57;;;;;;;19.98;7.45;;;16.20;99.90;;;;;;4972312;28;20034;-76
2023/08/18 07:28:23;;;;;;;20.85;7.35;;;16.10;99.90;;;;;;4973341;28;20137;-77
2023/08/18 07:30:48;;;;;;;19.02;7.47;;;16.10;99.90;;;;;;4972390;28;20031;-77
2023/08/18 07:33:14;;;;;;;20.83;8.45;;;16.10;99.90;;;;;;4971864;28;20153;-76
2023/08/18 07:35:40;;;;;;;22.52;8.57;;;16.10;99.90;;;;;;4971261;28;20121;-76
2023/08/18 07:38:05;;;;;;;18.67;7.68;;;16.20;99.90;;;;;;4971663;28;20069;-76
2023/08/18 07:40:31;;;;;;;15.23;7.93;;;16.20;99.90;;;;;;4971852;28;20443;-76
2023/08/18 07:42:57;;;;;;;22.60;7.90;;;16.20;99.90;;;;;;4971540;28;20038;-75
2023/08/18 07:45:22;;;;;;;23.25;7.95;;;16.20;99.90;;;;;;4972169;28;20039;-76
2023/08/18 07:47:48;;;;;;;25.95;8.65;;;16.20;99.90;;;;;;4971007;28;20499;-75
2023/08/18 07:50:14;;;;;;;22.85;8.63;;;16.20;99.90;;;;;;4971613;28;20062;-76
2023/08/18 07:52:41;;;;;;;20.60;8.23;;;16.20;99.90;;;;;;4970978;28;20450;-76
2023/08/18 07:55:07;;;;;;;20.15;9.27;;;16.20;99.90;;;;;;4970133;28;20109;-75
2023/08/18 07:57:34;;;;;;;20.85;8.43;;;16.20;99.90;;;;;;4971772;28;20086;-77
2023/08/18 08:00:07;;;;;;;20.95;9.05;;;16.20;99.90;;;;;;4971124;28;20105;-76
2023/08/18 08:02:32;;;;;;;23.38;8.73;;;16.20;99.90;;;;;;4971801;28;20185;-75
2023/08/18 08:04:58;;;;;;;24.33;9.55;;;16.20;99.90;;;;;;4971287;28;20034;-76
2023/08/18 08:07:24;;;;;;;17.90;9.52;;;16.20;99.90;;;;;;4970186;28;20465;-76
2023/08/18 08:09:52;;;;;;;24.30;9.68;;;16.20;99.90;;;;;;4972412;28;20037;-76
2023/08/18 08:12:17;;;;;;;23.77;9.98;;;16.20;99.90;;;;;;4975517;28;20172;-76
2023/08/18 08:14:43;;;;;;;21.88;9.10;;;16.30;99.90;;;;;;4974651;28;20159;-76
2023/08/18 08:17:09;;;;;;;23.60;9.48;;;16.30;99.90;;;;;;4973802;28;20031;-76
2023/08/18 08:19:35;;;;;;;19.80;8.95;;;16.20;99.90;;;;;;4974852;28;20042;-76
2023/08/18 08:22:03;;;;;;;18.73;8.93;;;16.20;99.90;;;;;;4975153;28;20407;-77
2023/08/18 08:24:29;;;;;;;20.85;10.05;;;16.10;99.90;;;;;;4973948;28;20046;-77
2023/08/18 08:26:55;;;;;;;19.45;9.90;;;16.10;99.90;;;;;;4973144;28;20420;-80
2023/08/18 08:29:20;;;;;;;24.45;11.05;;;16.10;99.90;;;;;;4973638;28;20042;-76
2023/08/18 08:31:46;;;;;;;26.75;11.48;;;16.10;99.90;;;;;;4973183;28;20136;-75
2023/08/18 08:34:12;;;;;;;26.75;11.55;;;16.10;99.90;;;;;;4974065;28;20427;-76
2023/08/18 08:36:37;;;;;;;23.05;11.38;;;16.00;99.90;;;;;;4973924;28;20027;-77
2023/08/18 08:39:04;;;;;;;35.03;12.15;;;16.10;99.90;;;;;;4973096;28;20428;-75
2023/08/18 08:41:30;;;;;;;28.83;11.55;;;16.10;99.90;;;;;;4972624;28;20126;-75
2023/08/18 08:43:55;;;;;;;30.17;12.18;;;16.00;99.90;;;;;;4973234;28;20444;-75
2023/08/18 08:46:22;;;;;;;29.73;12.18;;;16.10;99.90;;;;;;4974082;28;20090;-76
2023/08/18 08:48:51;;;;;;;21.75;10.70;;;16.10;99.90;;;;;;4973835;28;20058;-75
2023/08/18 08:51:18;;;;;;;30.40;11.00;;;16.00;99.90;;;;;;4974510;28;20038;-75
2023/08/18 08:53:49;;;;;;;24.17;11.07;;;16.00;99.90;;;;;;4973398;28;20033;-77
2023/08/18 08:56:19;;;;;;;21.80;10.77;;;16.10;99.90;;;;;;4974633;28;20102;-75
2023/08/18 08:58:47;;;;;;;19.95;10.75;;;16.00;99.90;;;;;;4973382;28;20173;-76
2023/08/18 09:01:13;;;;;;;27.20;12.18;;;16.10;99.90;;;;;;4974639;28;20030;-76
2023/08/18 09:03:40;;;;;;;21.35;11.95;;;16.10;99.90;;;;;;4973851;28;20027;-75
2023/08/18 09:06:07;;;;;;;19.80;12.07;;;16.10;99.90;;;;;;4972211;28;20042;-74
2023/08/18 09:08:32;;;;;;;24.10;12.38;;;16.10;99.90;;;;;;4986074;28;20030;-75
2023/08/18 09:10:58;;;;;;;23.60;12.80;;;16.10;99.90;;;;;;4992454;28;20073;-75
2023/08/18 09:13:24;;;;;;;23.73;12.38;;;16.10;99.90;;;;;;4993636;28;20041;-76
2023/08/18 09:15:50;;;;;;;22.80;12.43;;;16.20;99.90;;;;;;4992649;28;20046;-75
2023/08/18 09:18:17;;;;;;;18.25;12.85;;;16.20;99.90;;;;;;4992830;28;20467;-77
2023/08/18 09:20:44;;;;;;;23.25;11.90;;;16.20;99.90;;;;;;4992296;28;20053;-77
2023/08/18 09:23:10;;;;;;;22.15;13.05;;;16.30;99.90;;;;;;4993137;28;20112;-75
2023/08/18 09:25:36;;;;;;;26.20;13.88;;;16.20;99.90;;;;;;4993166;28;20097;-74
2023/08/18 09:28:06;;;;;;;21.38;13.23;;;16.30;99.90;;;;;;4992226;28;20026;-76
2023/08/18 09:30:32;;;;;;;26.08;14.55;;;16.30;99.90;;;;;;4992665;28;20441;-76
2023/08/18 09:33:02;;;;;;;22.05;13.70;;;16.30;99.90;;;;;;4992700;28;20120;-76
2023/08/18 09:35:33;;;;;;;26.77;14.90;;;16.20;99.90;;;;;;4993061;28;20363;-77
2023/08/18 09:38:00;;;;;;;26.77;14.63;;;16.30;99.90;;;;;;4992071;28;20456;-76
2023/08/18 09:40:28;;;;;;;29.33;15.05;;;16.30;99.90;;;;;;4993024;28;20138;-76
2023/08/18 09:42:54;;;;;;;25.15;13.05;;;16.30;99.90;;;;;;4992602;28;20550;-75
2023/08/18 09:45:26;;;;;;;28.30;14.02;;;16.30;99.90;;;;;;4992719;28;20090;-74
2023/08/18 09:47:54;;;;;;;27.50;13.82;;;16.40;99.90;;;;;;4992709;28;20062;-75
2023/08/18 09:50:24;;;;;;;32.80;15.75;;;16.40;99.90;;;;;;4994372;28;20027;-74
2023/08/18 09:52:54;;;;;;;23.65;15.65;;;16.40;99.90;;;;;;4993335;28;20034;-75
2023/08/18 09:55:38;;;;;;;26.58;16.08;;;16.40;99.90;;;;;;4993337;28;20026;-74
2023/08/18 09:58:19;;;;;;;28.27;16.13;;;16.40;99.90;;;;;;4993212;28;20026;-75
2023/08/18 10:00:46;;;;;;;33.40;16.23;;;16.40;99.90;;;;;;4992885;28;20022;-78
2023/08/18 10:03:17;;;;;;;37.53;17.33;;;16.40;99.90;;;;;;4993423;28;20048;-74
2023/08/18 10:05:46;;;;;;;39.47;16.98;;;16.40;99.90;;;;;;4993328;28;20039;-74
2023/08/18 10:08:14;;;;;;;31.45;15.93;;;16.40;99.90;;;;;;4992980;28;20026;-75
2023/08/18 10:10:40;;;;;;;34.58;16.05;;;16.40;99.90;;;;;;4994890;28;20026;-75
2023/08/18 10:13:08;;;;;;;35.55;17.70;;;16.50;99.90;;;;;;4994291;28;20093;-76
2023/08/18 10:15:35;;;;;;;36.17;16.55;;;16.50;99.90;;;;;;4993803;28;20057;-75
2023/08/18 10:18:04;;;;;;;36.72;17.13;;;16.60;99.90;;;;;;4994679;28;20092;-76
2023/08/18 10:20:30;;;;;;;31.58;15.52;;;16.60;99.90;;;;;;4993252;28;20027;-76
2023/08/18 10:22:55;;;;;;;35.78;17.00;;;16.60;99.90;;;;;;4992561;28;20041;-76
2023/08/18 10:25:25;;;;;;;27.23;15.63;;;16.60;99.90;;;;;;4993063;28;20030;-75
2023/08/18 10:27:51;;;;;;;35.03;16.73;;;16.70;99.90;;;;;;4992008;28;20033;-76
2023/08/18 10:30:26;;;;;;;28.80;15.50;;;16.70;99.90;;;;;;4989743;28;20468;-74
2023/08/18 10:32:54;;;;;;;27.42;14.10;;;16.70;99.90;;;;;;4991063;28;20099;-77
2023/08/18 10:35:25;;;;;;;31.88;13.85;;;16.80;99.90;;;;;;4992309;28;20403;-75
2023/08/18 10:38:05;;;;;;;30.42;14.75;;;16.80;99.90;;;;;;4991978;28;20357;-76
2023/08/18 10:40:36;;;;;;;25.02;13.38;;;16.90;99.90;;;;;;4992760;28;20026;-74
2023/08/18 10:43:08;;;;;;;25.05;12.98;;;16.90;99.90;;;;;;4992554;28;20515;-75
2023/08/18 10:45:34;;;;;;;25.20;12.97;;;17.00;99.90;;;;;;4992462;28;20038;-74
2023/08/18 10:48:03;;;;;;;21.92;12.98;;;17.10;99.90;;;;;;4992079;28;20019;-76
2023/08/18 10:50:30;;;;;;;32.33;12.95;;;17.00;99.90;;;;;;4992487;28;20041;-74
2023/08/18 10:52:57;;;;;;;27.58;13.52;;;17.00;99.90;;;;;;4990740;28;20041;-74
2023/08/18 10:55:27;;;;;;;27.55;11.68;;;17.00;99.90;;;;;;4991451;28;20535;-74
2023/08/18 10:57:53;;;;;;;26.00;12.00;;;17.00;99.90;;;;;;4989611;28;20121;-74
2023/08/18 11:00:20;;;;;;;29.25;13.18;;;17.10;99.90;;;;;;4991794;28;20105;-75
2023/08/18 11:02:49;;;;;;;28.50;11.45;;;17.10;99.90;;;;;;4990266;28;20121;-74
2023/08/18 11:05:21;;;;;;;28.65;12.05;;;17.10;99.90;;;;;;4991452;28;20093;-74
2023/08/18 11:07:47;;;;;;;19.70;11.40;;;17.20;99.90;;;;;;4991233;28;20022;-78
2023/08/18 11:10:23;;;;;;;26.38;10.75;;;17.20;99.90;;;;;;4991345;28;20267;-75
2023/08/18 11:12:54;;;;;;;21.67;11.23;;;17.20;99.90;;;;;;4990601;28;20124;-78
2023/08/18 11:15:21;;;;;;;17.38;10.85;;;17.20;99.90;;;;;;4991497;28;20478;-75
2023/08/18 11:17:47;;;;;;;18.65;11.05;;;17.30;99.90;;;;;;4990832;28;20034;-76
2023/08/18 11:20:13;;;;;;;20.60;11.90;;;17.30;99.90;;;;;;4991519;28;20046;-74
2023/08/18 11:22:41;;;;;;;25.67;12.57;;;17.30;99.90;;;;;;4991343;28;20057;-77
2023/08/18 11:25:08;;;;;;;27.20;11.55;;;17.30;99.90;;;;;;4990900;28;20066;-75
2023/08/18 11:27:35;;;;;;;27.42;12.18;;;17.20;99.90;;;;;;4991170;28;20076;-75
2023/08/18 11:30:04;;;;;;;19.40;10.68;;;17.20;99.90;;;;;;4990367;28;20430;-76
2023/08/18 11:32:30;;;;;;;26.50;10.65;;;17.20;99.90;;;;;;4991076;28;20065;-75
2023/08/18 11:34:56;;;;;;;23.60;11.13;;;17.20;99.90;;;;;;4988820;28;20428;-75
2023/08/18 11:37:22;;;;;;;20.10;11.02;;;17.20;99.90;;;;;;4991203;28;20037;-75
2023/08/18 11:39:48;;;;;;;24.17;10.10;;;17.20;99.90;;;;;;4991675;28;20054;-76
2023/08/18 11:42:14;;;;;;;25.85;10.75;;;17.10;99.90;;;;;;4991749;28;20037;-75
2023/08/18 11:44:41;;;;;;;25.52;10.43;;;17.10;99.90;;;;;;4992027;28;20042;-75
2023/08/18 11:47:08;;;;;;;24.15;10.57;;;17.10;99.90;;;;;;4989886;28;20058;-75
2023/08/18 11:49:35;;;;;;;18.70;10.20;;;17.10;99.90;;;;;;4991981;28;20023;-75
2023/08/18 11:52:06;;;;;;;14.27;9.00;;;17.10;99.90;;;;;;4991406;28;20033;-76
2023/08/18 11:54:34;;;;;;;20.98;9.60;;;17.10;99.90;;;;;;4991786;28;20026;-74
2023/08/18 11:57:02;;;;;;;21.38;10.20;;;17.20;99.90;;;;;;4991082;28;20027;-75
2023/08/18 11:59:28;;;;;;;21.10;8.88;;;17.20;99.90;;;;;;4991799;28;20126;-76
2023/08/18 12:01:56;;;;;;;18.33;9.90;;;17.10;99.90;;;;;;4991361;28;20082;-75
2023/08/18 12:04:29;;;;;;;21.20;9.43;;;17.10;99.90;;;;;;4991873;28;20151;-73
2023/08/18 12:06:55;;;;;;;16.83;10.00;;;17.10;99.90;;;;;;4991418;28;20035;-74
2023/08/18 12:09:23;;;;;;;18.80;9.93;;;17.20;99.90;;;;;;4991968;28;20057;-75
2023/08/18 12:11:49;;;;;;;21.17;9.13;;;17.20;99.90;;;;;;4991795;28;20109;-75
2023/08/18 12:14:16;;;;;;;17.00;8.75;;;17.20;99.90;;;;;;4991402;28;20026;-74
2023/08/18 12:16:42;;;;;;;19.73;8.63;;;17.20;99.90;;;;;;4991790;28;20030;-75
2023/08/18 12:19:08;;;;;;;19.15;7.97;;;17.20;99.90;;;;;;4991234;28;20063;-74
2023/08/18 12:21:36;;;;;;;22.73;8.27;;;17.20;99.90;;;;;;4991578;28;20085;-74
2023/08/18 12:24:05;;;;;;;16.95;8.65;;;17.30;99.90;;;;;;4990515;28;20033;-76
2023/08/18 12:26:32;;;;;;;23.88;8.30;;;17.30;99.90;;;;;;4990549;28;20053;-74
2023/08/18 12:28:59;;;;;;;15.82;8.00;;;17.30;99.90;;;;;;4991773;28;20034;-75
2023/08/18 12:31:24;;;;;;;15.32;8.63;;;17.30;99.90;;;;;;4992282;28;20035;-75
2023/08/18 12:33:53;;;;;;;16.60;8.07;;;17.40;99.90;;;;;;4992815;28;20144;-74